createdAt,value
2018-07-07T00:00:07.920Z,52.26
2018-07-07T00:01:07.289Z,52.41
2018-07-07T00:02:07.204Z,52.2
2018-07-07T00:03:07.134Z,52.23
2018-07-07T00:04:07.056Z,52.11
2018-07-07T00:05:07.138Z,52.3
2018-07-07T00:06:07.342Z,52.5
2018-07-07T00:07:07.096Z,52.11
2018-07-07T00:08:06.913Z,52.1
2018-07-07T00:09:07.061Z,52.39
2018-07-07T00:10:07.202Z,52.37
2018-07-07T00:11:07.386Z,52.01
2018-07-07T00:12:07.242Z,52.15
2018-07-07T00:13:07.037Z,52.13
2018-07-07T00:14:06.978Z,52.03
2018-07-07T00:15:07.285Z,52.31
2018-07-07T00:16:07.144Z,52.09
2018-07-07T00:17:07.080Z,52.37
2018-07-07T00:18:07.173Z,52.06
2018-07-07T00:19:06.942Z,52.04
2018-07-07T00:20:07.160Z,52.37
2018-07-07T00:21:07.021Z,52.04
2018-07-07T00:22:07.167Z,52.11
2018-07-07T00:23:07.058Z,52.05
2018-07-07T00:24:06.990Z,52.08
2018-07-07T00:25:06.930Z,52.23
2018-07-07T00:26:07.213Z,52.15
2018-07-07T00:27:07.086Z,52.37
2018-07-07T00:28:06.983Z,52.15
2018-07-07T00:29:07.146Z,52.14
2018-07-07T00:30:07.136Z,52.21
2018-07-07T00:31:07.143Z,52.07
2018-07-07T00:32:06.990Z,52.01
2018-07-07T00:33:07.226Z,52.13
2018-07-07T00:34:06.941Z,52.06
2018-07-07T00:35:06.942Z,52.16
2018-07-07T00:36:07.098Z,52.13
2018-07-07T00:37:39.060Z,52.16
2018-07-07T00:38:07.072Z,52.18
2018-07-07T00:39:06.937Z,52.27
2018-07-07T00:40:06.970Z,52.34
2018-07-07T00:41:07.198Z,52.46
2018-07-07T00:42:07.188Z,52.24
2018-07-07T00:43:06.983Z,52.33
2018-07-07T00:44:06.824Z,51.98
2018-07-07T00:45:07.037Z,52.5
2018-07-07T00:46:07.031Z,52.4
2018-07-07T00:47:07.025Z,52.33
2018-07-07T00:48:07.265Z,52.11
2018-07-07T00:49:07.066Z,52.44
2018-07-07T00:50:07.385Z,52.28
2018-07-07T00:51:06.995Z,52.43
2018-07-07T00:52:07.178Z,52.12
2018-07-07T00:53:07.083Z,52.16
2018-07-07T00:54:07.179Z,52.29
2018-07-07T00:55:06.966Z,52.18
2018-07-07T00:56:06.908Z,52.28
2018-07-07T00:57:07.199Z,52.25
2018-07-07T00:58:07.116Z,52.19
2018-07-07T00:59:06.993Z,52.31
2018-07-07T01:00:06.996Z,52.1
2018-07-07T01:01:07.193Z,52.3
2018-07-07T01:02:07.192Z,52.39
2018-07-07T01:03:07.327Z,52.32
2018-07-07T01:04:17.194Z,52.31
2018-07-07T01:05:06.889Z,52.32
2018-07-07T01:06:07.182Z,52.09
2018-07-07T01:07:07.149Z,52.27
2018-07-07T01:08:06.962Z,52.39
2018-07-07T01:09:07.318Z,52.11
2018-07-07T01:10:06.941Z,52.33
2018-07-07T01:11:07.032Z,52.47
2018-07-07T01:12:07.261Z,52.25
2018-07-07T01:13:17.009Z,52.47
2018-07-07T01:14:07.256Z,52.24
2018-07-07T01:15:07.225Z,52.38
2018-07-07T01:16:07.516Z,52.14
2018-07-07T01:17:07.066Z,52.47
2018-07-07T01:18:07.012Z,52.25
2018-07-07T01:19:07.214Z,52.45
2018-07-07T01:20:07.227Z,52.06
2018-07-07T01:21:07.173Z,52.37
2018-07-07T01:22:06.945Z,52.26
2018-07-07T01:23:07.005Z,52.44
2018-07-07T01:24:07.281Z,52.28
2018-07-07T01:25:07.236Z,52.07
2018-07-07T01:26:07.020Z,52.27
2018-07-07T01:27:07.084Z,52.14
2018-07-07T01:28:06.931Z,52.29
2018-07-07T01:29:07.156Z,52.29
2018-07-07T01:30:07.163Z,52.32
2018-07-07T01:31:07.112Z,52.26
2018-07-07T01:32:07.164Z,52.01
2018-07-07T01:33:07.035Z,52.25
2018-07-07T01:34:07.216Z,52.27
2018-07-07T01:35:06.899Z,52.4
2018-07-07T01:36:07.140Z,52.47
2018-07-07T01:37:07.047Z,52.07
2018-07-07T01:38:07.051Z,52.46
2018-07-07T01:39:07.102Z,52.13
2018-07-07T01:40:06.920Z,52.47
2018-07-07T01:41:07.187Z,52.19
2018-07-07T01:42:07.001Z,52.45
2018-07-07T01:43:07.034Z,52.35
2018-07-07T01:44:06.965Z,52.09
2018-07-07T01:45:07.182Z,52.03
2018-07-07T01:46:07.034Z,52.39
2018-07-07T01:47:07.006Z,52.15
2018-07-07T01:48:07.020Z,52.16
2018-07-07T01:49:06.990Z,52.08
2018-07-07T01:50:06.989Z,52.39
2018-07-07T01:51:06.996Z,52.28
2018-07-07T01:52:06.968Z,52.31
2018-07-07T01:53:07.100Z,52.39
2018-07-07T01:54:06.934Z,52.43
2018-07-07T01:55:07.077Z,52.41
2018-07-07T01:56:06.901Z,52.34
2018-07-07T01:57:07.204Z,52.42
2018-07-07T01:58:06.895Z,52.07
2018-07-07T01:59:07.153Z,52.16
2018-07-07T02:00:07.034Z,52.34
2018-07-07T02:01:07.023Z,52.07
2018-07-07T02:02:07.034Z,52.35
2018-07-07T02:03:07.029Z,52.17
2018-07-07T02:04:07.106Z,52.13
2018-07-07T02:05:07.154Z,52.35
2018-07-07T02:06:07.211Z,52.4
2018-07-07T02:07:16.995Z,52.32
2018-07-07T02:08:07.061Z,52.23
2018-07-07T02:09:07.152Z,52.17
2018-07-07T02:10:06.970Z,52.28
2018-07-07T02:11:07.217Z,52.19
2018-07-07T02:12:07.117Z,52.41
2018-07-07T02:13:06.937Z,52.19
2018-07-07T02:14:07.100Z,52
2018-07-07T02:15:07.148Z,52.36
2018-07-07T02:16:06.957Z,52.07
2018-07-07T02:17:06.913Z,52.21
2018-07-07T02:18:07.111Z,52.39
2018-07-07T02:19:07.086Z,52.29
2018-07-07T02:20:07.053Z,52.18
2018-07-07T02:21:06.921Z,52.3
2018-07-07T02:22:07.150Z,52.26
2018-07-07T02:23:07.173Z,52.32
2018-07-07T02:24:07.080Z,52.04
2018-07-07T02:25:39.135Z,52.34
2018-07-07T02:26:07.085Z,52.16
2018-07-07T02:27:07.048Z,52.22
2018-07-07T02:28:07.352Z,52.33
2018-07-07T02:29:07.141Z,52.46
2018-07-07T02:30:07.124Z,52.21
2018-07-07T02:31:06.949Z,52.22
2018-07-07T02:32:06.964Z,52.1
2018-07-07T02:33:07.142Z,52.12
2018-07-07T02:34:06.997Z,52.24
2018-07-07T02:35:07.143Z,52.32
2018-07-07T02:36:07.129Z,52.37
2018-07-07T02:37:07.195Z,52.3
2018-07-07T02:38:06.940Z,52.11
2018-07-07T02:39:06.916Z,52.29
2018-07-07T02:40:07.033Z,52.18
2018-07-07T02:41:06.944Z,52.39
2018-07-07T02:42:06.969Z,52.3
2018-07-07T02:43:07.007Z,52.06
2018-07-07T02:44:06.952Z,52.21
2018-07-07T02:45:07.095Z,52.23
2018-07-07T02:46:07.039Z,52.06
2018-07-07T02:47:07.056Z,52.38
2018-07-07T02:48:07.187Z,52.35
2018-07-07T02:49:06.942Z,52.35
2018-07-07T02:50:06.951Z,52.09
2018-07-07T02:51:07.066Z,52.24
2018-07-07T02:52:07.080Z,52.37
2018-07-07T02:53:06.961Z,52.07
2018-07-07T02:54:07.106Z,52.25
2018-07-07T02:55:07.103Z,52.48
2018-07-07T02:56:07.053Z,52.13
2018-07-07T02:57:06.965Z,52.3
2018-07-07T02:58:06.960Z,52.12
2018-07-07T02:59:06.924Z,52.09
2018-07-07T03:00:06.947Z,52.18
2018-07-07T03:01:06.919Z,52.15
2018-07-07T03:02:07.055Z,52.29
2018-07-07T03:03:07.213Z,52.18
2018-07-07T03:04:07.001Z,52.09
2018-07-07T03:05:07.117Z,52.19
2018-07-07T03:06:07.123Z,52.12
2018-07-07T03:07:07.138Z,52.36
2018-07-07T03:08:07.082Z,52.14
2018-07-07T03:09:06.979Z,52.16
2018-07-07T03:10:07.037Z,52.15
2018-07-07T03:11:07.092Z,52
2018-07-07T03:12:07.069Z,52.08
2018-07-07T03:13:06.999Z,52.38
2018-07-07T03:14:06.963Z,52.39
2018-07-07T03:15:07.331Z,52.39
2018-07-07T03:16:07.006Z,52.19
2018-07-07T03:17:07.034Z,52.16
2018-07-07T03:18:07.120Z,52.21
2018-07-07T03:19:07.226Z,52.36
2018-07-07T03:20:07.046Z,52.26
2018-07-07T03:21:07.187Z,52.25
2018-07-07T03:22:07.098Z,52.1
2018-07-07T03:23:06.996Z,52.28
2018-07-07T03:24:07.116Z,52.1
2018-07-07T03:25:06.877Z,52.23
2018-07-07T03:26:06.886Z,52.18
2018-07-07T03:27:06.895Z,52.4
2018-07-07T03:28:07.062Z,52.2
2018-07-07T03:29:07.103Z,52.35
2018-07-07T03:30:07.146Z,52.05
2018-07-07T03:31:07.101Z,52.2
2018-07-07T03:32:07.089Z,52.42
2018-07-07T03:33:07.135Z,52.24
2018-07-07T03:34:07.092Z,52.43
2018-07-07T03:35:06.980Z,52.07
2018-07-07T03:36:06.976Z,52.11
2018-07-07T03:37:06.970Z,52.29
2018-07-07T03:38:06.990Z,52.21
2018-07-07T03:39:07.102Z,52.42
2018-07-07T03:40:07.075Z,52.25
2018-07-07T03:41:06.922Z,52.33
2018-07-07T03:42:07.117Z,52.47
2018-07-07T03:43:07.113Z,52.38
2018-07-07T03:44:06.934Z,52.15
2018-07-07T03:45:07.142Z,52.26
2018-07-07T03:46:07.119Z,52.32
2018-07-07T03:47:07.043Z,52.37
2018-07-07T03:48:07.227Z,52.51
2018-07-07T03:49:07.135Z,52.16
2018-07-07T03:50:06.928Z,52.15
2018-07-07T03:51:07.155Z,52.47
2018-07-07T03:52:07.133Z,52.58
2018-07-07T03:53:07.010Z,52.31
2018-07-07T03:54:07.074Z,52.2
2018-07-07T03:55:06.908Z,52.43
2018-07-07T03:56:07.024Z,52.45
2018-07-07T03:57:06.908Z,52.23
2018-07-07T03:58:07.033Z,52.42
2018-07-07T03:59:06.957Z,52.34
2018-07-07T04:00:07.075Z,52.5
2018-07-07T04:01:07.111Z,52.28
2018-07-07T04:02:07.026Z,52.38
2018-07-07T04:03:06.865Z,52.3
2018-07-07T04:04:06.902Z,52.31
2018-07-07T04:05:07.059Z,52.31
2018-07-07T04:06:07.117Z,52.28
2018-07-07T04:07:07.059Z,52.23
2018-07-07T04:08:07.088Z,52.22
2018-07-07T04:09:06.941Z,52.33
2018-07-07T04:10:07.111Z,52.31
2018-07-07T04:11:06.966Z,52.48
2018-07-07T04:12:07.081Z,52.45
2018-07-07T04:13:06.894Z,52.47
2018-07-07T04:14:07.070Z,52.16
2018-07-07T04:15:06.910Z,52.08
2018-07-07T04:16:06.848Z,52.39
2018-07-07T04:17:07.113Z,52.29
2018-07-07T04:18:07.039Z,52.12
2018-07-07T04:19:07.055Z,52.15
2018-07-07T04:20:06.978Z,52.12
2018-07-07T04:21:07.162Z,52.35
2018-07-07T04:22:07.000Z,52.34
2018-07-07T04:23:06.934Z,52.08
2018-07-07T04:24:06.955Z,52.35
2018-07-07T04:25:07.105Z,52.42
2018-07-07T04:26:07.018Z,52.32
2018-07-07T04:27:06.932Z,52.06
2018-07-07T04:28:06.966Z,52.42
2018-07-07T04:29:06.985Z,52.33
2018-07-07T04:30:07.179Z,52.17
2018-07-07T04:31:06.989Z,52.11
2018-07-07T04:32:07.053Z,52.38
2018-07-07T04:33:07.119Z,52.11
2018-07-07T04:34:07.165Z,52.49
2018-07-07T04:35:07.008Z,52.1
2018-07-07T04:36:06.871Z,52.28
2018-07-07T04:37:07.171Z,52.27
2018-07-07T04:38:07.072Z,52.27
2018-07-07T04:39:07.071Z,52.31
2018-07-07T04:40:07.085Z,52.13
2018-07-07T04:41:07.018Z,52.27
2018-07-07T04:42:07.098Z,52.18
2018-07-07T04:43:07.068Z,52.19
2018-07-07T04:44:07.400Z,52.44
2018-07-07T04:45:06.907Z,52.39
2018-07-07T04:46:07.126Z,52.32
2018-07-07T04:47:06.872Z,52.32
2018-07-07T04:48:07.132Z,52.1
2018-07-07T04:49:07.022Z,52.52
2018-07-07T04:50:07.011Z,52.45
2018-07-07T04:51:07.114Z,52.08
2018-07-07T04:52:06.880Z,52.41
2018-07-07T04:53:07.098Z,52.4
2018-07-07T04:54:07.016Z,52.29
2018-07-07T04:55:06.929Z,52.28
2018-07-07T04:56:07.060Z,52.07
2018-07-07T04:57:06.999Z,52.29
2018-07-07T04:58:07.079Z,52.18
2018-07-07T04:59:07.058Z,52.08
2018-07-07T05:00:07.087Z,52.27
2018-07-07T05:01:06.940Z,52.1
2018-07-07T05:02:07.239Z,52.09
2018-07-07T05:03:07.054Z,52.36
2018-07-07T05:04:07.136Z,52.2
2018-07-07T05:05:07.275Z,52.3
2018-07-07T05:06:06.964Z,52.32
2018-07-07T05:07:07.096Z,52.24
2018-07-07T05:08:07.137Z,52.16
2018-07-07T05:09:06.812Z,52.17
2018-07-07T05:10:06.901Z,52.38
2018-07-07T05:11:06.993Z,52.17
2018-07-07T05:12:07.132Z,52.35
2018-07-07T05:13:07.041Z,52.26
2018-07-07T05:14:07.027Z,52.23
2018-07-07T05:15:06.980Z,52.08
2018-07-07T05:16:07.114Z,52.19
2018-07-07T05:17:06.974Z,52.53
2018-07-07T05:18:06.980Z,52.22
2018-07-07T05:19:06.868Z,52.42
2018-07-07T05:20:07.013Z,52.54
2018-07-07T05:21:07.147Z,52.48
2018-07-07T05:22:06.965Z,52.5
2018-07-07T05:23:06.964Z,52.34
2018-07-07T05:24:06.973Z,52.16
2018-07-07T05:25:07.169Z,52.37
2018-07-07T05:26:06.881Z,52.45
2018-07-07T05:27:07.133Z,52.41
2018-07-07T05:28:06.948Z,52.04
2018-07-07T05:29:07.038Z,52.06
2018-07-07T05:30:06.942Z,52.07
2018-07-07T05:31:06.934Z,52.24
2018-07-07T05:32:07.390Z,52.38
2018-07-07T05:33:07.101Z,52.13
2018-07-07T05:34:06.998Z,52.08
2018-07-07T05:35:07.031Z,52.32
2018-07-07T05:36:07.076Z,52.28
2018-07-07T05:37:07.245Z,52.25
2018-07-07T05:38:06.877Z,52.28
2018-07-07T05:39:07.062Z,52.25
2018-07-07T05:40:07.014Z,52.1
2018-07-07T05:41:06.893Z,52.44
2018-07-07T05:42:06.864Z,52.24
2018-07-07T05:43:07.245Z,52.06
2018-07-07T05:44:06.820Z,52.54
2018-07-07T05:45:07.098Z,52.09
2018-07-07T05:46:07.195Z,52.47
2018-07-07T05:47:06.949Z,52.52
2018-07-07T05:48:07.212Z,52.49
2018-07-07T05:49:06.874Z,52.26
2018-07-07T05:50:07.318Z,52.31
2018-07-07T05:51:06.959Z,52.26
2018-07-07T05:52:07.082Z,52.13
2018-07-07T05:53:06.957Z,52.14
2018-07-07T05:54:07.236Z,52.19
2018-07-07T05:55:07.012Z,52.1
2018-07-07T05:56:06.997Z,52.05
2018-07-07T05:57:07.097Z,52.17
2018-07-07T05:58:06.984Z,52.5
2018-07-07T05:59:07.005Z,52.46
2018-07-07T06:00:07.016Z,52.11
2018-07-07T06:01:06.987Z,52.32
2018-07-07T06:02:07.060Z,52.05
2018-07-07T06:03:07.148Z,52.43
2018-07-07T06:04:07.088Z,52.38
2018-07-07T06:05:06.963Z,52.39
2018-07-07T06:06:06.953Z,52.45
2018-07-07T06:07:07.146Z,52.35
2018-07-07T06:08:07.042Z,52.14
2018-07-07T06:09:07.049Z,52.09
2018-07-07T06:10:07.013Z,52.08
2018-07-07T06:11:06.903Z,52.48
2018-07-07T06:12:06.966Z,52.13
2018-07-07T06:13:07.123Z,52.3
2018-07-07T06:14:07.123Z,52.1
2018-07-07T06:15:07.030Z,52.22
2018-07-07T06:16:06.845Z,52.13
2018-07-07T06:17:07.085Z,52.43
2018-07-07T06:18:07.248Z,52.43
2018-07-07T06:19:07.028Z,52.08
2018-07-07T06:20:07.137Z,52.49
2018-07-07T06:21:07.056Z,52.49
2018-07-07T06:22:07.031Z,52.26
2018-07-07T06:23:06.848Z,52.49
2018-07-07T06:24:06.963Z,52.23
2018-07-07T06:25:06.979Z,52.44
2018-07-07T06:26:07.138Z,52.09
2018-07-07T06:27:06.961Z,52.41
2018-07-07T06:28:07.015Z,52.09
2018-07-07T06:29:06.897Z,52.27
2018-07-07T06:30:07.016Z,52.41
2018-07-07T06:31:06.947Z,52.26
2018-07-07T06:32:16.955Z,52.03
2018-07-07T06:33:07.009Z,52.35
2018-07-07T06:34:06.916Z,52.23
2018-07-07T06:35:07.048Z,52.16
2018-07-07T06:36:06.993Z,52.29
2018-07-07T06:37:06.838Z,52.39
2018-07-07T06:38:07.028Z,52.29
2018-07-07T06:39:06.999Z,52.09
2018-07-07T06:40:07.002Z,52.43
2018-07-07T06:41:06.937Z,52.32
2018-07-07T06:42:06.964Z,52.45
2018-07-07T06:43:07.106Z,52.38
2018-07-07T06:44:06.943Z,52.26
2018-07-07T06:45:07.028Z,52.19
2018-07-07T06:46:06.904Z,52.15
2018-07-07T06:47:06.959Z,52.22
2018-07-07T06:48:06.845Z,52.21
2018-07-07T06:49:06.877Z,52.38
2018-07-07T06:50:06.938Z,52.29
2018-07-07T06:51:06.933Z,52.19
2018-07-07T06:52:06.947Z,52.23
2018-07-07T06:53:07.056Z,52.12
2018-07-07T06:54:06.927Z,52.2
2018-07-07T06:55:07.130Z,52.51
2018-07-07T06:56:06.924Z,52.31
2018-07-07T06:57:06.899Z,52.48
2018-07-07T06:58:07.079Z,52.35
2018-07-07T06:59:06.860Z,52.21
2018-07-07T07:00:07.020Z,52.27
2018-07-07T07:01:07.016Z,52.21
2018-07-07T07:02:06.972Z,52.24
2018-07-07T07:03:07.050Z,52.18
2018-07-07T07:04:06.927Z,52.08
2018-07-07T07:05:07.084Z,52.38
2018-07-07T07:06:07.088Z,52.45
2018-07-07T07:07:07.134Z,52.45
2018-07-07T07:08:07.014Z,52.31
2018-07-07T07:09:07.173Z,52.2
2018-07-07T07:10:07.019Z,52.32
2018-07-07T07:11:07.166Z,52.22
2018-07-07T07:12:06.933Z,52.29
2018-07-07T07:13:06.864Z,52.42
2018-07-07T07:14:07.038Z,52.2
2018-07-07T07:15:07.028Z,52.35
2018-07-07T07:16:07.113Z,52.18
2018-07-07T07:17:06.901Z,52.22
2018-07-07T07:18:07.023Z,52.26
2018-07-07T07:19:07.026Z,52.15
2018-07-07T07:20:07.074Z,52.25
2018-07-07T07:21:06.959Z,52.3
2018-07-07T07:22:06.858Z,52.24
2018-07-07T07:23:07.016Z,52.1
2018-07-07T07:24:06.899Z,52.74
2018-07-07T07:25:06.897Z,52.64
2018-07-07T07:26:07.485Z,52.29
2018-07-07T07:27:06.960Z,52.62
2018-07-07T07:28:06.890Z,52.54
2018-07-07T07:29:06.833Z,52.27
2018-07-07T07:30:06.976Z,52.56
2018-07-07T07:31:07.027Z,52.27
2018-07-07T07:32:07.161Z,52.42
2018-07-07T07:33:07.211Z,52.67
2018-07-07T07:34:07.006Z,52.54
2018-07-07T07:35:06.988Z,52.54
2018-07-07T07:36:06.921Z,52.35
2018-07-07T07:37:06.888Z,52.63
2018-07-07T07:38:06.864Z,52.77
2018-07-07T07:39:07.010Z,52.82
2018-07-07T07:40:07.043Z,52.86
2018-07-07T07:41:06.913Z,52.61
2018-07-07T07:42:07.084Z,52.67
2018-07-07T07:43:06.908Z,52.51
2018-07-07T07:44:07.121Z,52.86
2018-07-07T07:45:06.841Z,52.79
2018-07-07T07:46:06.972Z,52.68
2018-07-07T07:47:51.990Z,52.81
2018-07-07T07:48:52.132Z,52.8
2018-07-07T07:49:52.164Z,52.88
2018-07-07T07:50:52.033Z,52.89
2018-07-07T07:51:52.135Z,52.87
2018-07-07T07:52:52.094Z,52.8
2018-07-07T07:54:02.111Z,52.97
2018-07-07T07:54:52.171Z,52.76
2018-07-07T07:55:52.292Z,52.65
2018-07-07T07:56:52.280Z,52.69
2018-07-07T07:57:52.369Z,52.66
2018-07-07T07:58:52.415Z,52.8
2018-07-07T07:59:52.023Z,52.76
2018-07-07T08:00:52.193Z,52.63
2018-07-07T08:01:52.380Z,52.64
2018-07-07T08:02:52.016Z,52.5
2018-07-07T08:03:52.223Z,52.62
2018-07-07T08:04:52.050Z,52.55
2018-07-07T08:05:52.456Z,52.64
2018-07-07T08:06:52.347Z,52.57
2018-07-07T08:07:52.205Z,52.64
2018-07-07T08:08:52.354Z,52.62
2018-07-07T08:09:52.082Z,52.54
2018-07-07T08:10:52.242Z,52.57
2018-07-07T08:11:52.182Z,52.5
2018-07-07T08:12:52.402Z,52.49
2018-07-07T08:13:52.041Z,52.57
2018-07-07T08:14:52.196Z,52.52
2018-07-07T08:15:52.209Z,52.6
2018-07-07T08:17:23.846Z,52.57
2018-07-07T08:17:52.107Z,52.57
2018-07-07T08:18:52.143Z,52.66
2018-07-07T08:19:52.303Z,52.55
2018-07-07T08:20:52.115Z,52.62
2018-07-07T08:21:52.074Z,52.58
2018-07-07T08:22:52.324Z,52.49
2018-07-07T08:23:52.080Z,52.52
2018-07-07T08:24:52.139Z,52.55
2018-07-07T08:25:52.018Z,52.58
2018-07-07T08:26:52.168Z,52.51
2018-07-07T08:27:52.244Z,52.5
2018-07-07T08:28:52.087Z,52.5
2018-07-07T08:29:52.147Z,52.6
2018-07-07T08:30:52.194Z,52.58
2018-07-07T08:31:52.215Z,52.58
2018-07-07T08:32:51.924Z,52.46
2018-07-07T08:33:52.201Z,52.58
2018-07-07T08:34:52.208Z,52.45
2018-07-07T08:35:52.165Z,52.6
2018-07-07T08:36:52.390Z,52.45
2018-07-07T08:37:51.995Z,52.55
2018-07-07T08:38:52.186Z,52.49
2018-07-07T08:39:52.213Z,52.58
2018-07-07T08:40:52.250Z,52.49
2018-07-07T08:41:52.052Z,52.47
2018-07-07T08:42:52.078Z,52.52
2018-07-07T08:43:52.048Z,52.52
2018-07-07T08:44:52.075Z,52.36
2018-07-07T08:45:52.388Z,52.48
2018-07-07T08:46:52.055Z,52.45
2018-07-07T08:47:52.124Z,52.46
2018-07-07T08:48:52.031Z,52.35
2018-07-07T08:49:52.229Z,52.47
2018-07-07T08:50:52.021Z,52.37
2018-07-07T08:51:52.142Z,52.42
2018-07-07T08:52:52.101Z,52.42
2018-07-07T08:53:52.774Z,52.51
2018-07-07T08:54:52.875Z,52.48
2018-07-07T08:55:53.606Z,52.38
2018-07-07T08:56:52.696Z,52.47
2018-07-07T08:57:52.803Z,52.39
2018-07-07T08:58:52.839Z,52.44
2018-07-07T08:59:52.650Z,52.46
2018-07-07T09:00:53.912Z,52.37
2018-07-07T09:01:53.007Z,52.44
2018-07-07T09:02:52.771Z,52.39
2018-07-07T09:03:52.806Z,52.43
2018-07-07T09:04:53.676Z,52.32
2018-07-07T09:05:52.824Z,52.4
2018-07-07T09:06:52.712Z,52.36
2018-07-07T09:07:52.742Z,52.5
2018-07-07T09:08:52.562Z,52.41
2018-07-07T09:09:52.724Z,52.38
2018-07-07T09:10:52.533Z,52.43
2018-07-07T09:11:53.730Z,52.4
2018-07-07T09:12:52.773Z,52.33
2018-07-07T09:13:52.980Z,52.34
2018-07-07T09:14:52.790Z,52.33
2018-07-07T09:15:52.880Z,52.33
2018-07-07T09:16:53.007Z,52.34
2018-07-07T09:17:52.651Z,52.39
2018-07-07T09:18:54.107Z,52.46
2018-07-07T09:19:52.796Z,52.4
2018-07-07T09:20:52.902Z,52.38
2018-07-07T09:21:52.770Z,52.48
2018-07-07T09:22:52.928Z,52.93
2018-07-07T09:23:52.901Z,52.47
2018-07-07T09:24:52.765Z,52.81
2018-07-07T09:25:52.818Z,52.9
2018-07-07T09:26:52.640Z,53.03
2018-07-07T09:27:52.684Z,52.69
2018-07-07T09:28:52.897Z,52.82
2018-07-07T09:29:52.813Z,52.69
2018-07-07T09:30:52.801Z,52.72
2018-07-07T09:31:52.771Z,53.06
2018-07-07T09:32:52.983Z,52.94
2018-07-07T09:33:53.598Z,53.1
2018-07-07T09:34:53.655Z,53.08
2018-07-07T09:35:52.587Z,53.08
2018-07-07T09:36:52.728Z,53.28
2018-07-07T09:37:52.756Z,53.33
2018-07-07T09:38:53.044Z,53.39
2018-07-07T09:39:52.685Z,53.4
2018-07-07T09:40:52.670Z,53.27
2018-07-07T09:41:52.731Z,53.23
2018-07-07T09:42:52.889Z,53.19
2018-07-07T09:43:52.712Z,53.33
2018-07-07T09:44:52.664Z,53.23
2018-07-07T09:45:52.997Z,53.36
2018-07-07T09:46:52.731Z,53.3
2018-07-07T09:47:52.765Z,53.42
2018-07-07T09:48:52.973Z,53.25
2018-07-07T09:49:52.941Z,53.44
2018-07-07T09:50:53.051Z,53.2
2018-07-07T09:51:52.740Z,53.24
2018-07-07T09:52:52.366Z,53.3
2018-07-07T09:53:52.051Z,53.19
2018-07-07T09:54:52.138Z,53.27
2018-07-07T09:55:52.043Z,53.24
2018-07-07T09:56:52.113Z,53.29
2018-07-07T09:57:53.156Z,53.18
2018-07-07T09:58:52.100Z,53.35
2018-07-07T09:59:52.726Z,53.32
2018-07-07T10:00:51.995Z,53.32
2018-07-07T10:01:52.216Z,53.47
2018-07-07T10:02:52.126Z,53.47
2018-07-07T10:03:52.040Z,53.19
2018-07-07T10:04:52.054Z,53.33
2018-07-07T10:05:52.057Z,53.74
2018-07-07T10:06:51.992Z,53.57
2018-07-07T10:07:52.549Z,53.39
2018-07-07T10:08:52.767Z,53.42
2018-07-07T10:09:52.981Z,53.42
2018-07-07T10:10:52.004Z,53.37
2018-07-07T10:11:52.119Z,53.34
2018-07-07T10:12:52.091Z,53.47
2018-07-07T10:13:53.033Z,53.52
2018-07-07T10:14:52.810Z,53.63
2018-07-07T10:15:53.061Z,53.52
2018-07-07T10:16:51.958Z,53.53
2018-07-07T10:17:52.066Z,53.66
2018-07-07T10:18:52.072Z,53.53
2018-07-07T10:19:53.076Z,53.58
2018-07-07T10:20:52.022Z,53.69
2018-07-07T10:21:53.110Z,53.66
2018-07-07T10:22:52.033Z,53.5
2018-07-07T10:23:52.680Z,53.49
2018-07-07T10:24:52.648Z,53.43
2018-07-07T10:25:51.973Z,53.29
2018-07-07T10:26:53.228Z,53.42
2018-07-07T10:27:52.106Z,53.5
2018-07-07T10:28:52.145Z,53.43
2018-07-07T10:29:52.161Z,53.96
2018-07-07T10:30:52.513Z,53.54
2018-07-07T10:31:52.681Z,53.49
2018-07-07T10:32:53.037Z,53.62
2018-07-07T10:33:53.046Z,53.54
2018-07-07T10:34:51.898Z,53.46
2018-07-07T10:35:52.480Z,53.49
2018-07-07T10:36:51.988Z,53.55
2018-07-07T10:37:52.115Z,53.57
2018-07-07T10:38:52.137Z,53.52
2018-07-07T10:39:53.091Z,53.32
2018-07-07T10:40:53.123Z,53.43
2018-07-07T10:41:52.119Z,53.34
2018-07-07T10:42:53.098Z,53.27
2018-07-07T10:43:51.969Z,53.36
2018-07-07T10:44:53.145Z,53.18
2018-07-07T10:45:53.239Z,53.3
2018-07-07T10:46:52.741Z,53.4
2018-07-07T10:47:52.392Z,53.21
2018-07-07T10:48:52.084Z,53.46
2018-07-07T10:49:52.086Z,53.17
2018-07-07T10:50:53.189Z,53.17
2018-07-07T10:51:52.811Z,53.26
2018-07-07T10:52:52.006Z,53.1
2018-07-07T10:53:52.685Z,53.27
2018-07-07T10:54:52.138Z,53.2
2018-07-07T10:55:52.059Z,53.11
2018-07-07T10:56:52.127Z,53.24
2018-07-07T10:57:52.109Z,53.29
2018-07-07T10:58:52.268Z,53.6
2018-07-07T10:59:52.098Z,53.31
2018-07-07T11:00:52.092Z,53.06
2018-07-07T11:01:52.279Z,53.15
2018-07-07T11:02:52.009Z,53.16
2018-07-07T11:03:52.084Z,53.1
2018-07-07T11:04:51.887Z,53.11
2018-07-07T11:05:52.030Z,53.09
2018-07-07T11:06:52.171Z,53.08
2018-07-07T11:07:52.098Z,53.03
2018-07-07T11:08:51.974Z,52.97
2018-07-07T11:09:52.151Z,53.04
2018-07-07T11:10:52.167Z,52.94
2018-07-07T11:11:52.318Z,53
2018-07-07T11:12:52.143Z,53.08
2018-07-07T11:13:52.048Z,53.01
2018-07-07T11:14:52.139Z,53.07
2018-07-07T11:15:51.993Z,52.89
2018-07-07T11:16:52.071Z,52.85
2018-07-07T11:17:52.020Z,52.94
2018-07-07T11:18:52.203Z,52.95
2018-07-07T11:19:52.116Z,52.85
2018-07-07T11:20:52.299Z,52.86
2018-07-07T11:21:52.165Z,53.04
2018-07-07T11:22:52.043Z,52.95
2018-07-07T11:23:52.108Z,53
2018-07-07T11:24:52.005Z,53
2018-07-07T11:25:52.245Z,52.91
2018-07-07T11:26:52.258Z,52.92
2018-07-07T11:27:51.949Z,53.02
2018-07-07T11:28:52.067Z,52.87
2018-07-07T11:29:52.409Z,52.86
2018-07-07T11:30:52.161Z,53
2018-07-07T11:31:52.159Z,52.89
2018-07-07T11:32:52.096Z,52.84
2018-07-07T11:33:52.164Z,52.87
2018-07-07T11:34:52.109Z,52.94
2018-07-07T11:35:52.028Z,52.82
2018-07-07T11:36:52.286Z,52.89
2018-07-07T11:37:52.153Z,52.87
2018-07-07T11:38:52.129Z,52.93
2018-07-07T11:39:52.095Z,52.83
2018-07-07T11:40:52.186Z,52.84
2018-07-07T11:41:52.064Z,52.82
2018-07-07T11:42:51.858Z,52.82
2018-07-07T11:43:51.923Z,52.8
2018-07-07T11:44:52.172Z,52.84
2018-07-07T11:45:52.075Z,52.91
2018-07-07T11:46:52.104Z,52.91
2018-07-07T11:47:52.193Z,52.83
2018-07-07T11:48:52.032Z,52.8
2018-07-07T11:49:52.222Z,52.77
2018-07-07T11:50:51.987Z,52.83
2018-07-07T11:51:52.106Z,52.71
2018-07-07T11:52:52.370Z,52.84
2018-07-07T11:53:52.453Z,52.8
2018-07-07T11:54:52.377Z,52.82
2018-07-07T11:55:52.397Z,52.73
2018-07-07T11:56:51.993Z,52.85
2018-07-07T11:57:52.007Z,52.88
2018-07-07T11:58:52.487Z,52.84
2018-07-07T11:59:52.494Z,52.89
2018-07-07T12:00:52.013Z,52.75
2018-07-07T12:01:52.422Z,52.8
2018-07-07T12:02:52.415Z,52.83
2018-07-07T12:03:52.077Z,52.83
2018-07-07T12:04:52.534Z,52.8
2018-07-07T12:05:54.894Z,52.77
2018-07-07T12:06:52.072Z,52.75
2018-07-07T12:08:14.256Z,52.73
2018-07-07T12:08:54.988Z,52.74
2018-07-07T12:09:51.995Z,52.68
2018-07-07T12:10:52.710Z,52.83
2018-07-07T12:11:52.635Z,52.78
2018-07-07T12:12:52.334Z,52.76
2018-07-07T12:13:52.344Z,52.74
2018-07-07T12:14:52.487Z,52.74
2018-07-07T12:15:52.384Z,52.79
2018-07-07T12:16:52.458Z,52.78
2018-07-07T12:17:51.982Z,52.74
2018-07-07T12:18:51.943Z,52.79
2018-07-07T12:19:52.077Z,52.75
2018-07-07T12:20:52.009Z,52.75
2018-07-07T12:21:52.311Z,52.7
2018-07-07T12:22:52.021Z,52.75
2018-07-07T12:23:52.496Z,52.72
2018-07-07T12:24:54.572Z,52.67
2018-07-07T12:25:52.405Z,53.01
2018-07-07T12:26:52.045Z,52.82
2018-07-07T12:27:52.450Z,52.96
2018-07-07T12:28:52.666Z,52.99
2018-07-07T12:29:52.357Z,52.96
2018-07-07T12:30:52.424Z,53.11
2018-07-07T12:31:52.719Z,53.06
2018-07-07T12:32:52.437Z,53
2018-07-07T12:33:52.532Z,53.08
2018-07-07T12:34:52.092Z,53.13
2018-07-07T12:35:52.047Z,53.11
2018-07-07T12:36:51.928Z,52.99
2018-07-07T12:37:52.370Z,53.12
2018-07-07T12:38:51.934Z,53.06
2018-07-07T12:39:52.454Z,53
2018-07-07T12:40:52.502Z,53.17
2018-07-07T12:41:52.003Z,53.25
2018-07-07T12:42:52.418Z,53.22
2018-07-07T12:43:52.535Z,53.16
2018-07-07T12:44:52.119Z,53.07
2018-07-07T12:46:33.648Z,53.19
2018-07-07T12:46:52.463Z,53.11
2018-07-07T12:47:52.368Z,53.08
2018-07-07T12:48:52.740Z,53.15
2018-07-07T12:49:52.726Z,53.16
2018-07-07T12:50:52.749Z,53.09
2018-07-07T12:51:52.596Z,53.25
2018-07-07T12:52:52.032Z,53.24
2018-07-07T12:53:52.203Z,53.18
2018-07-07T12:54:52.332Z,53.19
2018-07-07T12:55:52.088Z,53.23